sensor_id;sensor_type;location;lat;lon;timestamp;pressure;altitude;pressure_sealevel;temperature;humidity
31483;BME280;18103;52.246;8.052;2022-10-16T00:01:45;99685.63;;;13.45;98.27
31483;BME280;18103;52.246;8.052;2022-10-16T00:04:14;99699.03;;;13.51;97.66
31483;BME280;18103;52.246;8.052;2022-10-16T00:06:39;99696.34;;;13.51;97.24
31483;BME280;18103;52.246;8.052;2022-10-16T00:09:06;99693.69;;;13.58;97.33
31483;BME280;18103;52.246;8.052;2022-10-16T00:11:33;99689.56;;;13.49;97.41
31483;BME280;18103;52.246;8.052;2022-10-16T00:14:03;99693.28;;;13.48;98.13
31483;BME280;18103;52.246;8.052;2022-10-16T00:16:29;99687.50;;;13.51;97.90
31483;BME280;18103;52.246;8.052;2022-10-16T00:18:55;99694.50;;;13.52;98.11
31483;BME280;18103;52.246;8.052;2022-10-16T00:21:24;99690.19;;;13.51;98.23
31483;BME280;18103;52.246;8.052;2022-10-16T00:23:53;99686.28;;;13.53;98.31
31483;BME280;18103;52.246;8.052;2022-10-16T00:26:19;99685.88;;;13.56;98.49
31483;BME280;18103;52.246;8.052;2022-10-16T00:28:47;99699.88;;;13.52;98.88
31483;BME280;18103;52.246;8.052;2022-10-16T00:31:13;99691.63;;;13.47;99.78
31483;BME280;18103;52.246;8.052;2022-10-16T00:33:39;99685.84;;;13.50;99.81
31483;BME280;18103;52.246;8.052;2022-10-16T00:36:07;99685.44;;;13.53;99.51
31483;BME280;18103;52.246;8.052;2022-10-16T00:38:33;99695.78;;;13.56;99.86
31483;BME280;18103;52.246;8.052;2022-10-16T00:40:59;99688.50;;;13.50;100.00
31483;BME280;18103;52.246;8.052;2022-10-16T00:46:19;99694.13;;;13.55;100.00
31483;BME280;18103;52.246;8.052;2022-10-16T00:48:59;99694.75;;;13.57;99.99
31483;BME280;18103;52.246;8.052;2022-10-16T00:51:34;99700.69;;;13.52;100.00
31483;BME280;18103;52.246;8.052;2022-10-16T00:54:03;99702.97;;;13.49;100.00
31483;BME280;18103;52.246;8.052;2022-10-16T00:56:29;99702.34;;;13.53;100.00
31483;BME280;18103;52.246;8.052;2022-10-16T00:58:54;99701.06;;;13.49;100.00
31483;BME280;18103;52.246;8.052;2022-10-16T01:01:20;99710.56;;;13.52;100.00
31483;BME280;18103;52.246;8.052;2022-10-16T01:03:45;99702.53;;;13.52;100.00
31483;BME280;18103;52.246;8.052;2022-10-16T01:06:29;99699.88;;;13.52;100.00
31483;BME280;18103;52.246;8.052;2022-10-16T01:09:17;99699.03;;;13.51;100.00
31483;BME280;18103;52.246;8.052;2022-10-16T01:15:02;99686.47;;;13.52;100.00
31483;BME280;18103;52.246;8.052;2022-10-16T01:17:45;99689.56;;;13.49;100.00
31483;BME280;18103;52.246;8.052;2022-10-16T01:20:34;99687.91;;;13.48;100.00
31483;BME280;18103;52.246;8.052;2022-10-16T01:28:34;99699.22;;;13.50;100.00
31483;BME280;18103;52.246;8.052;2022-10-16T01:31:05;99692.47;;;13.54;100.00
31483;BME280;18103;52.246;8.052;2022-10-16T01:33:42;99696.16;;;13.53;100.00
31483;BME280;18103;52.246;8.052;2022-10-16T01:36:19;99706.88;;;13.53;100.00
31483;BME280;18103;52.246;8.052;2022-10-16T01:38:49;99704.00;;;13.48;100.00
31483;BME280;18103;52.246;8.052;2022-10-16T01:41:36;99705.84;;;13.47;100.00
31483;BME280;18103;52.246;8.052;2022-10-16T01:44:22;99702.53;;;13.52;100.00
31483;BME280;18103;52.246;8.052;2022-10-16T01:46:51;99704.81;;;13.48;100.00
31483;BME280;18103;52.246;8.052;2022-10-16T01:49:23;99701.69;;;13.45;100.00
31483;BME280;18103;52.246;8.052;2022-10-16T01:51:54;99713.81;;;13.41;100.00
31483;BME280;18103;52.246;8.052;2022-10-16T01:54:22;99712.03;;;13.48;100.00
31483;BME280;18103;52.246;8.052;2022-10-16T01:56:50;99713.81;;;13.41;100.00
31483;BME280;18103;52.246;8.052;2022-10-16T01:59:19;99710.34;;;13.40;100.00
31483;BME280;18103;52.246;8.052;2022-10-16T02:01:49;99706.84;;;13.40;100.00
31483;BME280;18103;52.246;8.052;2022-10-16T02:04:20;99712.19;;;13.40;100.00
31483;BME280;18103;52.246;8.052;2022-10-16T02:06:48;99710.94;;;13.36;100.00
31483;BME280;18103;52.246;8.052;2022-10-16T02:09:13;99702.69;;;13.37;100.00
31483;BME280;18103;52.246;8.052;2022-10-16T02:11:42;99701.03;;;13.36;100.00
31483;BME280;18103;52.246;8.052;2022-10-16T02:14:07;99700.22;;;13.36;100.00
31483;BME280;18103;52.246;8.052;2022-10-16T02:16:39;99706.84;;;13.40;100.00
31483;BME280;18103;52.246;8.052;2022-10-16T02:19:05;99711.38;;;13.39;100.00
31483;BME280;18103;52.246;8.052;2022-10-16T02:21:39;99714.25;;;13.38;100.00
31483;BME280;18103;52.246;8.052;2022-10-16T02:27:10;99711.13;;;13.34;100.00
31483;BME280;18103;52.246;8.052;2022-10-16T02:29:47;99710.50;;;13.32;100.00
31483;BME280;18103;52.246;8.052;2022-10-16T02:32:21;99710.47;;;13.26;100.00
31483;BME280;18103;52.246;8.052;2022-10-16T02:34:49;99709.44;;;13.27;100.00
31483;BME280;18103;52.246;8.052;2022-10-16T02:37:16;99708.03;;;13.31;100.00
31483;BME280;18103;52.246;8.052;2022-10-16T02:39:43;99699.34;;;13.22;100.00
31483;BME280;18103;52.246;8.052;2022-10-16T02:42:12;99706.13;;;13.25;100.00
31483;BME280;18103;52.246;8.052;2022-10-16T02:44:38;99703.88;;;13.21;100.00
31483;BME280;18103;52.246;8.052;2022-10-16T02:47:06;99710.09;;;13.29;100.00
31483;BME280;18103;52.246;8.052;2022-10-16T02:49:32;99705.56;;;13.29;100.00
31483;BME280;18103;52.246;8.052;2022-10-16T02:51:57;99705.94;;;13.26;100.00
31483;BME280;18103;52.246;8.052;2022-10-16T02:54:22;99701.81;;;13.23;100.00
31483;BME280;18103;52.246;8.052;2022-10-16T02:56:48;99699.75;;;13.26;100.00
31483;BME280;18103;52.246;8.052;2022-10-16T02:59:17;99708.03;;;13.31;100.00
31483;BME280;18103;52.246;8.052;2022-10-16T03:01:42;99708.44;;;13.28;100.00
31483;BME280;18103;52.246;8.052;2022-10-16T03:04:08;99713.16;;;13.32;100.00
31483;BME280;18103;52.246;8.052;2022-10-16T03:06:34;99715.44;;;13.29;100.00
31483;BME280;18103;52.246;8.052;2022-10-16T03:08:59;99725.50;;;13.27;100.00
31483;BME280;18103;52.246;8.052;2022-10-16T03:11:25;99713.38;;;13.31;100.00
31483;BME280;18103;52.246;8.052;2022-10-16T03:13:51;99719.53;;;13.25;100.00
31483;BME280;18103;52.246;8.052;2022-10-16T03:16:16;99720.41;;;13.32;100.00
31483;BME280;18103;52.246;8.052;2022-10-16T03:18:42;99718.75;;;13.31;100.00
31483;BME280;18103;52.246;8.052;2022-10-16T03:21:07;99716.25;;;13.29;100.00
31483;BME280;18103;52.246;8.052;2022-10-16T03:23:32;99715.44;;;13.29;100.00
31483;BME280;18103;52.246;8.052;2022-10-16T03:25:58;99722.03;;;13.33;100.00
31483;BME280;18103;52.246;8.052;2022-10-16T03:28:24;99715.44;;;13.29;100.00
31483;BME280;18103;52.246;8.052;2022-10-16T03:30:49;99717.09;;;13.30;100.00
31483;BME280;18103;52.246;8.052;2022-10-16T03:33:14;99719.13;;;13.28;100.00
31483;BME280;18103;52.246;8.052;2022-10-16T03:35:40;99728.19;;;13.27;100.00
31483;BME280;18103;52.246;8.052;2022-10-16T03:38:07;99727.56;;;13.25;100.00
31483;BME280;18103;52.246;8.052;2022-10-16T03:40:33;99734.56;;;13.26;100.00
31483;BME280;18103;52.246;8.052;2022-10-16T03:42:58;99732.50;;;13.21;100.00
31483;BME280;18103;52.246;8.052;2022-10-16T03:45:24;99735.81;;;13.23;100.00
31483;BME280;18103;52.246;8.052;2022-10-16T03:47:50;99728.56;;;13.23;100.00
31483;BME280;18103;52.246;8.052;2022-10-16T03:50:18;99716.66;;;13.33;100.00
31483;BME280;18103;52.246;8.052;2022-10-16T03:52:43;99714.16;;;13.25;100.00
31483;BME280;18103;52.246;8.052;2022-10-16T03:55:09;99710.25;;;13.20;100.00
31483;BME280;18103;52.246;8.052;2022-10-16T03:57:34;99725.28;;;13.21;100.00
31483;BME280;18103;52.246;8.052;2022-10-16T03:59:59;99723.22;;;13.23;100.00
31483;BME280;18103;52.246;8.052;2022-10-16T04:02:25;99719.97;;;13.28;100.00
31483;BME280;18103;52.246;8.052;2022-10-16T04:04:50;99721.59;;;13.23;100.00
31483;BME280;18103;52.246;8.052;2022-10-16T04:07:15;99716.44;;;13.21;100.00
31483;BME280;18103;52.246;8.052;2022-10-16T04:09:41;99729.00;;;13.20;100.00
31483;BME280;18103;52.246;8.052;2022-10-16T04:12:07;99733.50;;;13.20;100.00
31483;BME280;18103;52.246;8.052;2022-10-16T04:14:32;99737.03;;;13.20;100.00
31483;BME280;18103;52.246;8.052;2022-10-16T04:16:57;99738.69;;;13.21;100.00
31483;BME280;18103;52.246;8.052;2022-10-16T04:19:23;99740.09;;;13.24;100.00
31483;BME280;18103;52.246;8.052;2022-10-16T04:21:48;99741.34;;;13.21;100.00
31483;BME280;18103;52.246;8.052;2022-10-16T04:24:13;99753.09;;;13.27;100.00
31483;BME280;18103;52.246;8.052;2022-10-16T04:26:41;99741.34;;;13.21;100.00
31483;BME280;18103;52.246;8.052;2022-10-16T04:29:06;99755.75;;;13.20;100.00
31483;BME280;18103;52.246;8.052;2022-10-16T04:31:32;99757.59;;;13.20;100.00
31483;BME280;18103;52.246;8.052;2022-10-16T04:33:58;99749.13;;;13.16;99.91
31483;BME280;18103;52.246;8.052;2022-10-16T04:36:23;99762.50;;;13.16;100.00
31483;BME280;18103;52.246;8.052;2022-10-16T04:38:48;99757.16;;;13.16;99.77
31483;BME280;18103;52.246;8.052;2022-10-16T04:41:14;99767.69;;;13.18;99.71
31483;BME280;18103;52.246;8.052;2022-10-16T04:43:39;99767.28;;;13.21;99.60
31483;BME280;18103;52.246;8.052;2022-10-16T04:46:04;99763.34;;;13.17;99.70
31483;BME280;18103;52.246;8.052;2022-10-16T04:48:30;99757.41;;;13.21;99.48
31483;BME280;18103;52.246;8.052;2022-10-16T04:50:56;99770.81;;;13.28;99.10
31483;BME280;18103;52.246;8.052;2022-10-16T04:53:21;99761.34;;;13.26;98.86
31483;BME280;18103;52.246;8.052;2022-10-16T04:55:47;99765.19;;;13.16;99.24
31483;BME280;18103;52.246;8.052;2022-10-16T04:58:12;99766.47;;;13.20;99.13
31483;BME280;18103;52.246;8.052;2022-10-16T05:00:38;99760.47;;;13.18;99.19
31483;BME280;18103;52.246;8.052;2022-10-16T05:03:03;99767.09;;;13.23;99.29
31483;BME280;18103;52.246;8.052;2022-10-16T05:05:32;99769.56;;;13.24;99.26
31483;BME280;18103;52.246;8.052;2022-10-16T05:07:58;99770.53;;;13.16;99.50
31483;BME280;18103;52.246;8.052;2022-10-16T05:10:26;99769.56;;;13.24;98.79
31483;BME280;18103;52.246;8.052;2022-10-16T05:12:51;99768.13;;;13.21;99.25
31483;BME280;18103;52.246;8.052;2022-10-16T05:15:18;99771.19;;;13.18;99.07
31483;BME280;18103;52.246;8.052;2022-10-16T05:17:43;99766.47;;;13.20;99.16
31483;BME280;18103;52.246;8.052;2022-10-16T05:20:09;99773.28;;;13.23;98.61
31483;BME280;18103;52.246;8.052;2022-10-16T05:22:34;99778.19;;;13.19;99.24
31483;BME280;18103;52.246;8.052;2022-10-16T05:24:59;99785.44;;;13.26;98.98
31483;BME280;18103;52.246;8.052;2022-10-16T05:27:25;99788.53;;;13.23;98.67
31483;BME280;18103;52.246;8.052;2022-10-16T05:29:50;99790.56;;;13.20;98.96
31483;BME280;18103;52.246;8.052;2022-10-16T05:32:16;99773.06;;;13.25;99.01
31483;BME280;18103;52.246;8.052;2022-10-16T05:34:43;99782.53;;;13.20;99.28
31483;BME280;18103;52.246;8.052;2022-10-16T05:37:09;99789.13;;;13.25;98.68
31483;BME280;18103;52.246;8.052;2022-10-16T05:39:35;99787.28;;;13.25;98.59
31483;BME280;18103;52.246;8.052;2022-10-16T05:42:02;99789.34;;;13.23;98.74
31483;BME280;18103;52.246;8.052;2022-10-16T05:44:27;99804.34;;;13.24;98.31
31483;BME280;18103;52.246;8.052;2022-10-16T05:46:55;99805.59;;;13.21;98.81
31483;BME280;18103;52.246;8.052;2022-10-16T05:49:20;99805.00;;;13.26;98.63
31483;BME280;18103;52.246;8.052;2022-10-16T05:51:46;99812.03;;;13.34;98.15
31483;BME280;18103;52.246;8.052;2022-10-16T05:54:11;99811.38;;;13.25;98.30
31483;BME280;18103;52.246;8.052;2022-10-16T05:56:36;99811.38;;;13.25;98.21
31483;BME280;18103;52.246;8.052;2022-10-16T05:59:03;99816.31;;;13.21;98.33
31483;BME280;18103;52.246;8.052;2022-10-16T06:01:29;99811.38;;;13.25;98.32
31483;BME280;18103;52.246;8.052;2022-10-16T06:03:56;99820.88;;;13.28;97.86
31483;BME280;18103;52.246;8.052;2022-10-16T06:06:23;99829.69;;;13.21;98.05
31483;BME280;18103;52.246;8.052;2022-10-16T06:08:51;99816.91;;;13.23;98.48
31483;BME280;18103;52.246;8.052;2022-10-16T06:11:19;99828.69;;;13.23;97.99
31483;BME280;18103;52.246;8.052;2022-10-16T06:13:45;99834.88;;;13.23;98.16
31483;BME280;18103;52.246;8.052;2022-10-16T06:16:11;99832.38;;;13.21;98.09
31483;BME280;18103;52.246;8.052;2022-10-16T06:18:37;99841.66;;;13.26;98.06
31483;BME280;18103;52.246;8.052;2022-10-16T06:21:09;99846.81;;;13.27;97.63
31483;BME280;18103;52.246;8.052;2022-10-16T06:23:35;99846.38;;;13.23;97.63
31483;BME280;18103;52.246;8.052;2022-10-16T06:26:11;99850.94;;;13.23;97.58
31483;BME280;18103;52.246;8.052;2022-10-16T06:28:38;99855.88;;;13.26;98.07
31483;BME280;18103;52.246;8.052;2022-10-16T06:31:04;99857.06;;;13.23;98.04
31483;BME280;18103;52.246;8.052;2022-10-16T06:33:31;99856.06;;;13.25;98.16
31483;BME280;18103;52.246;8.052;2022-10-16T06:36:13;99858.81;;;13.31;97.74
31483;BME280;18103;52.246;8.052;2022-10-16T06:38:39;99858.34;;;13.28;97.93
31483;BME280;18103;52.246;8.052;2022-10-16T06:41:06;99867.22;;;13.28;97.98
31483;BME280;18103;52.246;8.052;2022-10-16T06:43:32;99874.41;;;13.28;98.44
31483;BME280;18103;52.246;8.052;2022-10-16T06:45:59;99870.34;;;13.32;97.58
31483;BME280;18103;52.246;8.052;2022-10-16T06:48:25;99870.53;;;13.30;97.88
31483;BME280;18103;52.246;8.052;2022-10-16T06:51:03;99867.91;;;13.37;97.40
31483;BME280;18103;52.246;8.052;2022-10-16T06:53:34;99883.97;;;13.37;97.69
31483;BME280;18103;52.246;8.052;2022-10-16T06:56:15;99885.09;;;13.49;96.69
31483;BME280;18103;52.246;8.052;2022-10-16T06:58:41;99898.03;;;13.45;97.41
31483;BME280;18103;52.246;8.052;2022-10-16T07:01:07;99900.56;;;13.53;97.09
31483;BME280;18103;52.246;8.052;2022-10-16T07:03:33;99904.50;;;13.57;97.03
31483;BME280;18103;52.246;8.052;2022-10-16T07:06:02;99903.69;;;13.57;96.41
31483;BME280;18103;52.246;8.052;2022-10-16T07:08:33;99907.97;;;13.58;96.43
31483;BME280;18103;52.246;8.052;2022-10-16T07:11:01;99917.31;;;13.62;96.50
31483;BME280;18103;52.246;8.052;2022-10-16T07:13:26;99926.50;;;13.53;96.38
31483;BME280;18103;52.246;8.052;2022-10-16T07:15:51;99935.19;;;13.55;96.68
31483;BME280;18103;52.246;8.052;2022-10-16T07:18:17;99933.16;;;13.57;96.62
31483;BME280;18103;52.246;8.052;2022-10-16T07:20:45;99941.78;;;13.59;96.56
31483;BME280;18103;52.246;8.052;2022-10-16T07:23:11;99949.97;;;13.51;96.88
31483;BME280;18103;52.246;8.052;2022-10-16T07:25:36;99949.81;;;13.59;96.32
31483;BME280;18103;52.246;8.052;2022-10-16T07:28:01;99946.72;;;13.55;96.38
31483;BME280;18103;52.246;8.052;2022-10-16T07:30:27;99954.63;;;13.64;96.00
31483;BME280;18103;52.246;8.052;2022-10-16T07:32:52;99965.66;;;13.54;96.57
31483;BME280;18103;52.246;8.052;2022-10-16T07:35:17;99977.22;;;13.54;96.76
31483;BME280;18103;52.246;8.052;2022-10-16T07:37:46;99971.50;;;13.64;96.37
31483;BME280;18103;52.246;8.052;2022-10-16T07:40:15;99985.94;;;13.63;96.71
31483;BME280;18103;52.246;8.052;2022-10-16T07:42:40;99990.28;;;13.64;96.80
31483;BME280;18103;52.246;8.052;2022-10-16T07:45:08;99998.16;;;13.72;96.61
31483;BME280;18103;52.246;8.052;2022-10-16T07:47:37;100003.00;;;13.83;95.83
31483;BME280;18103;52.246;8.052;2022-10-16T07:50:06;100004.03;;;13.89;96.15
31483;BME280;18103;52.246;8.052;2022-10-16T07:52:35;100008.03;;;14.00;95.96
31483;BME280;18103;52.246;8.052;2022-10-16T07:55:00;100014.91;;;14.09;95.80
31483;BME280;18103;52.246;8.052;2022-10-16T07:57:26;100017.38;;;14.10;96.11
31483;BME280;18103;52.246;8.052;2022-10-16T07:59:51;100022.22;;;14.28;94.96
31483;BME280;18103;52.246;8.052;2022-10-16T08:02:16;100033.84;;;14.35;94.44
31483;BME280;18103;52.246;8.052;2022-10-16T08:04:46;100027.69;;;14.41;94.89
31483;BME280;18103;52.246;8.052;2022-10-16T08:07:11;100031.63;;;14.45;95.06
31483;BME280;18103;52.246;8.052;2022-10-16T08:09:37;100019.09;;;14.52;94.85
31483;BME280;18103;52.246;8.052;2022-10-16T08:12:02;100028.38;;;14.56;94.44
31483;BME280;18103;52.246;8.052;2022-10-16T08:14:29;100030.25;;;14.62;93.78
31483;BME280;18103;52.246;8.052;2022-10-16T08:16:54;100034.38;;;14.58;94.03
31483;BME280;18103;52.246;8.052;2022-10-16T08:19:19;100030.72;;;14.72;93.57
31483;BME280;18103;52.246;8.052;2022-10-16T08:21:47;100042.72;;;14.77;93.76
31483;BME280;18103;52.246;8.052;2022-10-16T08:24:13;100046.25;;;14.84;92.96
31483;BME280;18103;52.246;8.052;2022-10-16T08:26:38;100049.00;;;15.03;92.84
31483;BME280;18103;52.246;8.052;2022-10-16T08:29:06;100052.34;;;15.12;91.63
31483;BME280;18103;52.246;8.052;2022-10-16T08:31:32;100056.84;;;15.05;91.41
31483;BME280;18103;52.246;8.052;2022-10-16T08:33:57;100051.03;;;14.95;92.20
31483;BME280;18103;52.246;8.052;2022-10-16T08:36:22;100053.94;;;15.06;91.79
31483;BME280;18103;52.246;8.052;2022-10-16T08:38:49;100058.91;;;15.03;93.16
31483;BME280;18103;52.246;8.052;2022-10-16T08:44:59;100070.09;;;15.13;91.81
31483;BME280;18103;52.246;8.052;2022-10-16T08:47:17;100078.81;;;15.35;90.79
31483;BME280;18103;52.246;8.052;2022-10-16T08:49:57;100079.59;;;15.16;91.48
31483;BME280;18103;52.246;8.052;2022-10-16T08:52:25;100070.50;;;15.23;91.86
31483;BME280;18103;52.246;8.052;2022-10-16T08:54:55;100086.25;;;15.39;91.64
31483;BME280;18103;52.246;8.052;2022-10-16T08:57:24;100079.25;;;15.52;91.78
31483;BME280;18103;52.246;8.052;2022-10-16T08:59:52;100079.50;;;15.76;91.08
31483;BME280;18103;52.246;8.052;2022-10-16T09:02:43;100080.94;;;15.66;90.31
31483;BME280;18103;52.246;8.052;2022-10-16T09:05:21;100078.47;;;15.84;89.19
31483;BME280;18103;52.246;8.052;2022-10-16T09:11:01;100083.88;;;15.97;87.01
31483;BME280;18103;52.246;8.052;2022-10-16T09:13:40;100089.66;;;15.94;86.45
31483;BME280;18103;52.246;8.052;2022-10-16T09:16:34;100090.47;;;16.01;87.20
31483;BME280;18103;52.246;8.052;2022-10-16T09:21:48;100103.31;;;16.12;86.50
31483;BME280;18103;52.246;8.052;2022-10-16T09:24:19;100101.22;;;16.14;86.61
31483;BME280;18103;52.246;8.052;2022-10-16T09:26:46;100098.72;;;16.19;86.34
31483;BME280;18103;52.246;8.052;2022-10-16T09:29:16;100107.22;;;16.30;85.28
31483;BME280;18103;52.246;8.052;2022-10-16T09:31:42;100113.84;;;16.27;85.46
31483;BME280;18103;52.246;8.052;2022-10-16T09:36:44;100117.31;;;16.67;83.89
31483;BME280;18103;52.246;8.052;2022-10-16T09:39:11;100118.56;;;16.58;85.33
31483;BME280;18103;52.246;8.052;2022-10-16T09:41:38;100115.47;;;16.35;85.28
31483;BME280;18103;52.246;8.052;2022-10-16T09:46:44;100118.59;;;16.38;82.25
31483;BME280;18103;52.246;8.052;2022-10-16T09:49:23;100124.97;;;16.57;83.20
31483;BME280;18103;52.246;8.052;2022-10-16T09:51:50;100135.13;;;16.62;82.40
31483;BME280;18103;52.246;8.052;2022-10-16T09:54:17;100145.91;;;16.68;82.67
31483;BME280;18103;52.246;8.052;2022-10-16T09:56:43;100144.19;;;16.80;81.49
31483;BME280;18103;52.246;8.052;2022-10-16T09:59:24;100149.72;;;16.98;80.38
31483;BME280;18103;52.246;8.052;2022-10-16T10:01:53;100151.28;;;16.68;82.35
31483;BME280;18103;52.246;8.052;2022-10-16T10:04:22;100162.06;;;16.68;82.14
31483;BME280;18103;52.246;8.052;2022-10-16T10:06:50;100163.88;;;16.81;81.64
31483;BME280;18103;52.246;8.052;2022-10-16T10:09:30;100162.03;;;16.55;82.17
31483;BME280;18103;52.246;8.052;2022-10-16T10:11:59;100170.94;;;16.49;81.89
31483;BME280;18103;52.246;8.052;2022-10-16T10:17:20;100168.28;;;16.22;82.59
31483;BME280;18103;52.246;8.052;2022-10-16T10:19:50;100163.72;;;16.30;82.43
31483;BME280;18103;52.246;8.052;2022-10-16T10:22:45;100159.34;;;16.35;82.06
31483;BME280;18103;52.246;8.052;2022-10-16T10:30:55;100165.38;;;16.64;81.61
31483;BME280;18103;52.246;8.052;2022-10-16T10:33:37;100175.50;;;16.68;80.96
31483;BME280;18103;52.246;8.052;2022-10-16T10:50:20;100183.00;;;17.24;78.13
31483;BME280;18103;52.246;8.052;2022-10-16T10:53:18;100175.56;;;17.13;79.35
31483;BME280;18103;52.246;8.052;2022-10-16T11:01:53;100191.31;;;17.67;78.68
31483;BME280;18103;52.246;8.052;2022-10-16T11:04:25;100190.28;;;17.68;75.07
31483;BME280;18103;52.246;8.052;2022-10-16T11:07:21;100191.31;;;18.05;76.49
31483;BME280;18103;52.246;8.052;2022-10-16T11:09:54;100183.44;;;18.28;76.30
31483;BME280;18103;52.246;8.052;2022-10-16T11:12:35;100189.03;;;18.27;74.64
31483;BME280;18103;52.246;8.052;2022-10-16T11:15:27;100192.97;;;18.06;76.32
31483;BME280;18103;52.246;8.052;2022-10-16T11:18:01;100200.50;;;17.91;76.25
31483;BME280;18103;52.246;8.052;2022-10-16T11:20:37;100196.47;;;17.75;73.55
31483;BME280;18103;52.246;8.052;2022-10-16T11:25:53;100198.81;;;17.58;75.32
31483;BME280;18103;52.246;8.052;2022-10-16T11:28:42;100187.22;;;17.96;76.54
31483;BME280;18103;52.246;8.052;2022-10-16T11:31:18;100189.91;;;17.96;74.44
31483;BME280;18103;52.246;8.052;2022-10-16T11:33:52;100206.19;;;18.14;72.86
31483;BME280;18103;52.246;8.052;2022-10-16T11:36:25;100207.50;;;18.05;72.66
31483;BME280;18103;52.246;8.052;2022-10-16T11:39:16;100213.13;;;18.28;73.96
31483;BME280;18103;52.246;8.052;2022-10-16T11:49:30;100224.88;;;18.09;72.13
31483;BME280;18103;52.246;8.052;2022-10-16T11:53:03;100224.03;;;18.15;72.50
31483;BME280;18103;52.246;8.052;2022-10-16T11:55:16;100219.91;;;18.37;73.38
31483;BME280;18103;52.246;8.052;2022-10-16T11:57:49;100229.91;;;18.62;73.50
31483;BME280;18103;52.246;8.052;2022-10-16T12:03:05;100226.84;;;18.27;72.84
31483;BME280;18103;52.246;8.052;2022-10-16T12:08:22;100234.97;;;18.20;72.35
31483;BME280;18103;52.246;8.052;2022-10-16T12:10:48;100236.66;;;18.46;74.57
31483;BME280;18103;52.246;8.052;2022-10-16T12:13:34;100249.28;;;18.77;74.49
31483;BME280;18103;52.246;8.052;2022-10-16T12:18:42;100250.31;;;19.01;72.88
31483;BME280;18103;52.246;8.052;2022-10-16T12:21:09;100253.41;;;18.79;72.33
31483;BME280;18103;52.246;8.052;2022-10-16T12:23:50;100251.91;;;18.65;72.16
31483;BME280;18103;52.246;8.052;2022-10-16T12:26:30;100245.00;;;18.69;73.78
31483;BME280;18103;52.246;8.052;2022-10-16T12:29:12;100248.84;;;18.80;72.42
31483;BME280;18103;52.246;8.052;2022-10-16T12:31:44;100253.81;;;18.83;73.98
31483;BME280;18103;52.246;8.052;2022-10-16T12:34:29;100251.13;;;18.58;73.41
31483;BME280;18103;52.246;8.052;2022-10-16T12:37:08;100245.28;;;18.30;74.57
31483;BME280;18103;52.246;8.052;2022-10-16T12:39:35;100241.97;;;18.28;74.24
31483;BME280;18103;52.246;8.052;2022-10-16T12:42:20;100250.13;;;18.21;74.01
31483;BME280;18103;52.246;8.052;2022-10-16T12:44:48;100240.25;;;18.08;74.02
31483;BME280;18103;52.246;8.052;2022-10-16T12:47:48;100263.25;;;17.80;73.37
31483;BME280;18103;52.246;8.052;2022-10-16T12:50:29;100259.91;;;17.84;72.99
31483;BME280;18103;52.246;8.052;2022-10-16T12:52:56;100270.34;;;17.61;74.03
31483;BME280;18103;52.246;8.052;2022-10-16T12:55:23;100269.72;;;17.65;74.33
31483;BME280;18103;52.246;8.052;2022-10-16T13:00:56;100279.75;;;17.45;75.42
31483;BME280;18103;52.246;8.052;2022-10-16T13:12:04;100274.25;;;18.16;74.18
31483;BME280;18103;52.246;8.052;2022-10-16T13:20:34;100289.66;;;18.40;68.40
31483;BME280;18103;52.246;8.052;2022-10-16T13:28:30;100297.38;;;18.93;70.30
31483;BME280;18103;52.246;8.052;2022-10-16T13:30:59;100302.16;;;18.91;68.48
31483;BME280;18103;52.246;8.052;2022-10-16T13:35:57;100296.16;;;18.89;68.35
31483;BME280;18103;52.246;8.052;2022-10-16T13:38:27;100303.91;;;19.04;67.45
31483;BME280;18103;52.246;8.052;2022-10-16T13:41:17;100296.19;;;19.07;68.16
31483;BME280;18103;52.246;8.052;2022-10-16T13:43:50;100305.56;;;19.05;67.54
31483;BME280;18103;52.246;8.052;2022-10-16T13:46:24;100311.50;;;19.13;68.71
31483;BME280;18103;52.246;8.052;2022-10-16T13:49:11;100307.75;;;19.14;68.79
31483;BME280;18103;52.246;8.052;2022-10-16T13:51:37;100311.47;;;18.95;68.72
31483;BME280;18103;52.246;8.052;2022-10-16T13:54:02;100311.88;;;18.99;68.21
31483;BME280;18103;52.246;8.052;2022-10-16T13:56:30;100310.28;;;18.91;68.67
31483;BME280;18103;52.246;8.052;2022-10-16T14:01:28;100319.47;;;19.08;68.34
31483;BME280;18103;52.246;8.052;2022-10-16T14:04:07;100323.59;;;18.86;68.23
31483;BME280;18103;52.246;8.052;2022-10-16T14:06:33;100318.53;;;18.96;68.01
31483;BME280;18103;52.246;8.052;2022-10-16T14:09:22;100320.88;;;18.93;68.43
31483;BME280;18103;52.246;8.052;2022-10-16T14:11:50;100322.75;;;18.92;68.98
31483;BME280;18103;52.246;8.052;2022-10-16T14:14:18;100321.56;;;18.81;69.27
31483;BME280;18103;52.246;8.052;2022-10-16T14:16:44;100313.69;;;18.80;70.17
31483;BME280;18103;52.246;8.052;2022-10-16T14:19:28;100326.31;;;18.55;68.84
31483;BME280;18103;52.246;8.052;2022-10-16T14:21:54;100313.84;;;18.54;68.12
31483;BME280;18103;52.246;8.052;2022-10-16T14:24:33;100321.34;;;18.52;68.92
31483;BME280;18103;52.246;8.052;2022-10-16T14:26:59;100318.97;;;18.37;69.47
31483;BME280;18103;52.246;8.052;2022-10-16T14:29:27;100323.97;;;18.33;69.19
31483;BME280;18103;52.246;8.052;2022-10-16T14:34:31;100332.72;;;18.29;68.85
31483;BME280;18103;52.246;8.052;2022-10-16T14:37:06;100321.78;;;18.17;68.33
31483;BME280;18103;52.246;8.052;2022-10-16T14:39:34;100326.59;;;18.08;69.24
31483;BME280;18103;52.246;8.052;2022-10-16T14:42:01;100328.72;;;18.00;69.20
31483;BME280;18103;52.246;8.052;2022-10-16T14:44:32;100333.34;;;17.86;69.90
31483;BME280;18103;52.246;8.052;2022-10-16T14:47:07;100340.44;;;17.81;70.05
31483;BME280;18103;52.246;8.052;2022-10-16T14:49:33;100335.47;;;17.78;70.08
31483;BME280;18103;52.246;8.052;2022-10-16T14:52:04;100326.75;;;17.76;70.54
31483;BME280;18103;52.246;8.052;2022-10-16T14:54:30;100329.88;;;17.73;71.18